createdAt,value
2023-05-21T00:00:57.064Z,10.65
2023-05-21T00:03:28.412Z,10.68
2023-05-21T00:05:58.146Z,10.67
2023-05-21T00:08:27.705Z,10.62
2023-05-21T00:10:57.381Z,10.57
2023-05-21T00:13:26.896Z,10.52
2023-05-21T00:15:59.073Z,10.43
2023-05-21T00:18:28.663Z,10.44
2023-05-21T00:20:58.340Z,10.38
2023-05-21T00:23:27.963Z,10.37
2023-05-21T00:25:57.497Z,10.34
2023-05-21T00:28:27.014Z,10.28
2023-05-21T00:30:59.148Z,10.24
2023-05-21T00:33:29.242Z,10.22
2023-05-21T00:35:59.093Z,10.16
2023-05-21T00:38:28.646Z,10.17
2023-05-21T00:40:58.256Z,10.12
2023-05-21T00:43:27.794Z,10.11
2023-05-21T00:45:59.976Z,10.13
2023-05-21T00:48:29.508Z,10.11
2023-05-21T00:50:59.132Z,10.11
2023-05-21T00:53:28.764Z,10.08
2023-05-21T00:55:58.299Z,10.01
2023-05-21T00:58:27.854Z,9.97
2023-05-21T01:01:03.694Z,9.96
2023-05-21T01:03:38.832Z,9.94
2023-05-21T01:06:08.925Z,9.95
2023-05-21T01:08:38.913Z,9.91
2023-05-21T01:11:09.818Z,9.88
2023-05-21T01:13:43.097Z,9.84
2023-05-21T01:16:17.903Z,9.79
2023-05-21T01:18:48.008Z,9.80
2023-05-21T01:21:18.283Z,9.77
2023-05-21T01:23:50.689Z,9.77
2023-05-21T01:26:20.220Z,9.71
2023-05-21T01:28:49.829Z,9.70
2023-05-21T01:31:31.390Z,9.75
2023-05-21T01:34:02.695Z,9.73
2023-05-21T01:36:36.189Z,9.70
2023-05-21T01:39:11.839Z,9.69
2023-05-21T01:41:44.126Z,9.71
2023-05-21T01:44:14.295Z,9.69
2023-05-21T01:46:43.953Z,9.64
2023-05-21T01:49:14.315Z,9.63
2023-05-21T01:51:44.005Z,9.65
2023-05-21T01:54:16.215Z,9.71
2023-05-21T01:56:46.257Z,9.77
2023-05-21T01:59:17.363Z,9.78
2023-05-21T02:01:46.983Z,9.75
2023-05-21T02:04:16.582Z,9.75
2023-05-21T02:06:46.186Z,9.80
2023-05-21T02:09:18.345Z,9.77
2023-05-21T02:11:47.970Z,9.75
2023-05-21T02:14:17.553Z,9.79
2023-05-21T02:16:47.316Z,9.83
2023-05-21T02:19:17.317Z,9.82
2023-05-21T02:21:46.967Z,9.89
2023-05-21T02:24:19.064Z,9.91
2023-05-21T02:26:50.592Z,9.84
2023-05-21T02:29:20.197Z,9.83
2023-05-21T02:31:51.084Z,9.88
2023-05-21T02:34:21.699Z,9.76
2023-05-21T02:36:54.063Z,9.67
2023-05-21T02:39:26.319Z,9.62
2023-05-21T02:41:55.865Z,9.59
2023-05-21T02:44:25.995Z,9.57
2023-05-21T02:46:55.557Z,9.56
2023-05-21T02:49:25.169Z,9.50
2023-05-21T02:51:54.754Z,9.47
2023-05-21T02:54:26.855Z,9.47
2023-05-21T02:56:56.804Z,9.40
2023-05-21T02:59:26.571Z,9.35
2023-05-21T03:01:56.170Z,9.35
2023-05-21T03:04:28.423Z,9.34
2023-05-21T03:06:58.747Z,9.32
2023-05-21T03:09:30.974Z,9.35
2023-05-21T03:12:00.548Z,9.34
2023-05-21T03:14:30.078Z,9.29
2023-05-21T03:16:59.726Z,9.25
2023-05-21T03:19:30.762Z,9.25
2023-05-21T03:22:00.371Z,9.26
2023-05-21T03:24:33.313Z,9.25
2023-05-21T03:27:06.469Z,9.23
2023-05-21T03:29:36.399Z,9.23
2023-05-21T03:32:06.474Z,9.25
2023-05-21T03:34:37.560Z,9.29
2023-05-21T03:37:07.422Z,9.27
2023-05-21T03:39:39.622Z,9.26
2023-05-21T03:42:09.273Z,9.27
2023-05-21T03:44:38.839Z,9.29
2023-05-21T03:47:08.629Z,9.27
2023-05-21T03:49:38.243Z,9.27
2023-05-21T03:52:08.014Z,9.23
2023-05-21T03:54:40.365Z,9.26
2023-05-21T03:57:09.900Z,9.25
2023-05-21T03:59:39.486Z,9.26
2023-05-21T04:02:09.072Z,9.30
2023-05-21T04:04:38.767Z,9.27
2023-05-21T04:07:14.756Z,9.30
2023-05-21T04:09:47.007Z,9.32
2023-05-21T04:12:18.213Z,9.35
2023-05-21T04:14:47.806Z,9.40
2023-05-21T04:17:19.299Z,9.46
2023-05-21T04:19:48.858Z,9.51
2023-05-21T04:22:18.492Z,9.58
2023-05-21T04:24:50.661Z,9.59
2023-05-21T04:27:20.203Z,9.55
2023-05-21T04:29:50.843Z,9.64
2023-05-21T04:32:20.696Z,9.64
2023-05-21T04:34:50.296Z,9.71
2023-05-21T04:37:20.673Z,9.74
2023-05-21T04:39:53.694Z,9.78
2023-05-21T04:42:24.177Z,9.85
2023-05-21T04:44:55.661Z,9.91
2023-05-21T04:47:25.276Z,9.97
2023-05-21T04:49:54.841Z,9.97
2023-05-21T04:52:25.252Z,9.99
2023-05-21T04:54:57.436Z,10.03
2023-05-21T04:57:28.332Z,10.09
2023-05-21T04:59:58.039Z,10.15
2023-05-21T05:02:27.653Z,10.20
2023-05-21T05:04:57.237Z,10.23
2023-05-21T05:07:26.840Z,10.31
2023-05-21T05:09:59.026Z,10.37
2023-05-21T05:12:28.582Z,10.50
2023-05-21T05:14:58.169Z,10.56
2023-05-21T05:17:27.750Z,10.61
2023-05-21T05:19:57.301Z,10.64
2023-05-21T05:22:27.009Z,10.74
2023-05-21T05:24:59.124Z,10.78
2023-05-21T05:27:28.726Z,10.84
2023-05-21T05:29:58.323Z,10.87
2023-05-21T05:32:27.882Z,10.95
2023-05-21T05:34:57.523Z,11.00
2023-05-21T05:37:27.077Z,11.05
2023-05-21T05:39:59.252Z,11.12
2023-05-21T05:42:28.788Z,11.16
2023-05-21T05:44:58.712Z,11.19
2023-05-21T05:47:28.234Z,11.24
2023-05-21T05:49:57.772Z,11.31
2023-05-21T05:52:27.275Z,11.38
2023-05-21T05:54:59.356Z,11.45
2023-05-21T05:57:28.871Z,11.54
2023-05-21T05:59:58.618Z,11.63
2023-05-21T06:02:28.244Z,11.68
2023-05-21T06:04:58.517Z,11.74
2023-05-21T06:07:28.050Z,11.80
2023-05-21T06:10:00.157Z,11.90
2023-05-21T06:12:29.746Z,11.92
2023-05-21T06:14:59.338Z,12.01
2023-05-21T06:17:29.019Z,12.05
2023-05-21T06:19:59.378Z,12.16
2023-05-21T06:22:28.992Z,12.27
2023-05-21T06:25:01.120Z,12.36
2023-05-21T06:27:30.806Z,12.41
2023-05-21T06:30:00.468Z,12.54
2023-05-21T06:32:30.082Z,12.69
2023-05-21T06:34:59.661Z,12.79
2023-05-21T06:37:29.279Z,12.90
2023-05-21T06:40:01.416Z,13.00
2023-05-21T06:42:31.009Z,13.16
2023-05-21T06:45:00.692Z,13.27
2023-05-21T06:47:30.218Z,13.39
2023-05-21T06:49:59.826Z,13.53
2023-05-21T06:52:29.548Z,13.55
2023-05-21T06:55:01.721Z,13.66
2023-05-21T06:57:31.440Z,13.80
2023-05-21T07:00:01.749Z,13.92
2023-05-21T07:02:31.441Z,14.00
2023-05-21T07:05:01.098Z,14.05
2023-05-21T07:07:30.613Z,14.11
2023-05-21T07:10:02.772Z,14.18
2023-05-21T07:12:32.288Z,14.31
2023-05-21T07:15:01.851Z,14.38
2023-05-21T07:17:31.416Z,14.48
2023-05-21T07:20:01.075Z,14.55
2023-05-21T07:22:30.778Z,14.67
2023-05-21T07:25:02.952Z,14.68
2023-05-21T07:27:32.513Z,14.68
2023-05-21T07:30:02.116Z,14.72
2023-05-21T07:32:31.670Z,14.83
2023-05-21T07:35:03.723Z,14.98
2023-05-21T07:37:33.354Z,14.96
2023-05-21T07:40:06.550Z,15.10
2023-05-21T07:42:36.164Z,15.22
2023-05-21T07:45:05.839Z,15.37
2023-05-21T07:47:35.430Z,15.42
2023-05-21T07:50:05.040Z,15.49
2023-05-21T07:52:34.594Z,15.54
2023-05-21T07:55:07.529Z,15.64
2023-05-21T07:57:37.106Z,15.64
2023-05-21T08:00:09.360Z,15.78
2023-05-21T08:02:39.098Z,15.83
2023-05-21T08:05:10.584Z,15.87
2023-05-21T08:07:41.616Z,15.96
2023-05-21T08:10:14.165Z,16.18
2023-05-21T08:12:43.719Z,16.35
2023-05-21T08:15:14.214Z,16.45
2023-05-21T08:17:43.845Z,16.39
2023-05-21T08:20:14.569Z,16.47
2023-05-21T08:22:44.498Z,16.53
2023-05-21T08:25:16.685Z,16.65
2023-05-21T08:27:46.240Z,16.72
2023-05-21T08:30:15.925Z,16.79
2023-05-21T08:32:45.678Z,16.73
2023-05-21T08:35:15.306Z,16.76
2023-05-21T08:37:44.898Z,16.88
2023-05-21T08:40:17.842Z,17.06
2023-05-21T08:42:48.911Z,17.16
2023-05-21T08:45:23.702Z,17.24
2023-05-21T08:47:59.747Z,17.22
2023-05-21T08:50:30.545Z,17.32
2023-05-21T08:53:02.882Z,17.32
2023-05-21T08:55:39.664Z,17.38
2023-05-21T08:58:09.264Z,17.37
2023-05-21T09:00:39.015Z,17.44
2023-05-21T09:03:12.501Z,17.52
2023-05-21T09:05:42.656Z,17.64
2023-05-21T09:08:17.373Z,17.66
2023-05-21T09:10:53.079Z,17.70
2023-05-21T09:13:23.573Z,17.60
2023-05-21T09:15:53.208Z,17.67
2023-05-21T09:18:22.825Z,17.70
2023-05-21T09:20:54.160Z,17.70
2023-05-21T09:23:23.715Z,17.81
2023-05-21T09:25:55.978Z,17.79
2023-05-21T09:28:25.529Z,17.94
2023-05-21T09:30:56.231Z,17.93
2023-05-21T09:33:29.819Z,17.97
2023-05-21T09:35:59.491Z,17.95
2023-05-21T09:38:29.607Z,18.06
2023-05-21T09:41:01.788Z,18.07
2023-05-21T09:43:31.568Z,18.14
2023-05-21T09:46:02.923Z,18.15
2023-05-21T09:48:39.669Z,18.04
2023-05-21T09:51:13.872Z,17.98
2023-05-21T09:53:47.717Z,18.16
2023-05-21T09:56:22.476Z,18.30
2023-05-21T09:58:54.830Z,18.38
2023-05-21T10:01:24.602Z,18.37
2023-05-21T10:03:58.788Z,18.47
2023-05-21T10:06:31.204Z,18.57
2023-05-21T10:09:05.613Z,18.63
2023-05-21T10:11:39.693Z,18.75
2023-05-21T10:14:10.071Z,18.78
2023-05-21T10:16:40.246Z,18.97
2023-05-21T10:19:11.197Z,19.03
2023-05-21T10:21:42.529Z,19.18
2023-05-21T10:24:12.552Z,19.42
2023-05-21T10:26:44.698Z,19.63
2023-05-21T10:29:15.362Z,19.90
2023-05-21T10:31:50.202Z,20.03
2023-05-21T10:34:19.890Z,19.92
2023-05-21T10:36:52.213Z,20.05
2023-05-21T10:39:22.697Z,20.06
2023-05-21T10:42:03.325Z,20.35
2023-05-21T10:44:40.282Z,20.31
2023-05-21T10:47:29.368Z,20.15
2023-05-21T10:50:11.427Z,20.02
2023-05-21T10:52:53.663Z,20.15
2023-05-21T10:55:36.301Z,20.24
2023-05-21T10:58:32.558Z,20.23
2023-05-21T11:01:02.500Z,20.23
2023-05-21T11:03:35.647Z,20.46
2023-05-21T11:06:08.695Z,20.56
2023-05-21T11:08:39.256Z,20.54
2023-05-21T11:11:08.844Z,20.76
2023-05-21T11:13:53.236Z,20.69
2023-05-21T11:16:27.789Z,20.50
2023-05-21T11:19:04.037Z,20.60
2023-05-21T11:21:34.535Z,20.82
2023-05-21T11:24:06.519Z,20.76
2023-05-21T11:27:07.376Z,20.88
2023-05-21T11:29:44.657Z,20.86
2023-05-21T11:32:17.590Z,20.98
2023-05-21T11:34:48.792Z,21.29
2023-05-21T11:37:33.643Z,21.38
2023-05-21T11:40:30.442Z,21.36
2023-05-21T11:43:00.143Z,21.31
2023-05-21T11:45:36.438Z,21.53
2023-05-21T11:48:06.567Z,21.61
2023-05-21T11:50:37.714Z,21.81
2023-05-21T11:53:07.739Z,21.70
2023-05-21T11:55:38.870Z,21.73
2023-05-21T11:58:09.236Z,21.75
2023-05-21T12:00:44.017Z,21.55
2023-05-21T12:03:16.972Z,21.60
2023-05-21T12:05:50.006Z,21.80
2023-05-21T12:08:25.618Z,21.96
2023-05-21T12:10:59.677Z,22.01
2023-05-21T12:13:29.240Z,22.06
2023-05-21T12:16:01.373Z,22.04
2023-05-21T12:18:30.991Z,22.11
2023-05-21T12:21:00.745Z,22.22
2023-05-21T12:23:30.554Z,22.34
2023-05-21T12:26:00.129Z,22.43
2023-05-21T12:28:29.773Z,22.38
2023-05-21T12:31:01.970Z,22.57
2023-05-21T12:33:37.134Z,22.84
2023-05-21T12:36:07.403Z,23.03
2023-05-21T12:38:36.998Z,23.24
2023-05-21T12:41:07.609Z,23.43
2023-05-21T12:43:37.189Z,23.50
2023-05-21T12:46:09.407Z,23.93
2023-05-21T12:48:39.006Z,24.34
2023-05-21T12:51:08.668Z,24.48
2023-05-21T12:53:41.370Z,24.46
2023-05-21T12:56:12.836Z,24.27
2023-05-21T12:58:42.593Z,24.46
2023-05-21T13:01:15.246Z,24.81
2023-05-21T13:03:45.203Z,25.07
2023-05-21T13:06:16.180Z,25.00
2023-05-21T13:08:45.736Z,25.35
2023-05-21T13:11:15.244Z,25.14
2023-05-21T13:13:44.821Z,25.26
2023-05-21T13:16:16.939Z,25.20
2023-05-21T13:18:46.623Z,25.40
2023-05-21T13:21:16.251Z,25.59
2023-05-21T13:23:45.836Z,25.50
2023-05-21T13:26:15.396Z,25.64
2023-05-21T13:28:45.023Z,25.88
2023-05-21T13:31:17.167Z,25.86
2023-05-21T13:33:46.840Z,25.52
2023-05-21T13:36:16.426Z,26.01
2023-05-21T13:38:45.986Z,25.99
2023-05-21T13:41:15.554Z,26.19
2023-05-21T13:43:45.243Z,26.37
2023-05-21T13:46:17.402Z,26.27
2023-05-21T13:48:47.012Z,26.17
2023-05-21T13:51:30.880Z,25.77
2023-05-21T13:54:06.274Z,25.82
2023-05-21T13:56:36.236Z,25.62
2023-05-21T13:59:05.910Z,25.21
2023-05-21T14:01:38.068Z,25.13
2023-05-21T14:04:08.514Z,24.84
2023-05-21T14:06:38.315Z,24.58
2023-05-21T14:09:08.158Z,24.54
2023-05-21T14:11:38.463Z,24.66
2023-05-21T14:14:08.100Z,24.50
2023-05-21T14:16:40.257Z,24.72
2023-05-21T14:19:09.909Z,24.62
2023-05-21T14:21:39.548Z,24.33
2023-05-21T14:24:09.141Z,24.47
2023-05-21T14:26:40.441Z,24.49
2023-05-21T14:29:10.129Z,24.46
2023-05-21T14:31:42.319Z,24.24
2023-05-21T14:34:11.947Z,24.38
2023-05-21T14:36:41.463Z,24.57
2023-05-21T14:39:11.042Z,24.50
2023-05-21T14:41:41.486Z,24.50
2023-05-21T14:44:11.072Z,24.22
2023-05-21T14:46:43.841Z,24.10
2023-05-21T14:49:14.636Z,23.93
2023-05-21T14:51:45.121Z,23.94
2023-05-21T14:54:14.674Z,23.84
2023-05-21T14:56:44.225Z,23.70
2023-05-21T14:59:14.502Z,23.86
2023-05-21T15:01:46.762Z,23.78
2023-05-21T15:04:16.444Z,23.65
2023-05-21T15:06:46.130Z,23.63
2023-05-21T15:09:15.710Z,23.50
2023-05-21T15:11:46.242Z,23.45
2023-05-21T15:14:15.961Z,23.46
2023-05-21T15:16:48.219Z,23.46
2023-05-21T15:19:18.065Z,23.48
2023-05-21T15:21:47.627Z,23.21
2023-05-21T15:24:17.134Z,23.13
2023-05-21T15:26:46.682Z,23.13
2023-05-21T15:29:16.252Z,23.09
2023-05-21T15:31:51.175Z,22.99
2023-05-21T15:34:20.749Z,23.00
2023-05-21T15:36:50.316Z,22.86
2023-05-21T15:39:19.924Z,22.88
2023-05-21T15:41:49.442Z,22.92
2023-05-21T15:44:19.299Z,22.95
2023-05-21T15:46:51.582Z,23.01
2023-05-21T15:49:21.171Z,22.94
2023-05-21T15:51:52.191Z,22.91
2023-05-21T15:54:21.781Z,23.00
2023-05-21T15:56:52.561Z,22.91
2023-05-21T15:59:22.368Z,22.92
2023-05-21T16:01:54.651Z,22.95
2023-05-21T16:04:24.211Z,22.91
2023-05-21T16:06:53.718Z,22.83
2023-05-21T16:09:23.334Z,22.92
2023-05-21T16:11:52.895Z,22.85
2023-05-21T16:14:23.754Z,22.81
2023-05-21T16:16:56.002Z,22.65
2023-05-21T16:19:25.713Z,22.59
2023-05-21T16:21:55.375Z,22.55
2023-05-21T16:24:24.945Z,22.46
2023-05-21T16:26:54.489Z,22.45
2023-05-21T16:29:24.067Z,22.40
2023-05-21T16:31:56.275Z,22.45
2023-05-21T16:34:25.906Z,22.48
2023-05-21T16:36:55.467Z,22.46
2023-05-21T16:39:25.282Z,22.35
2023-05-21T16:41:56.008Z,22.33
2023-05-21T16:44:25.673Z,22.24
2023-05-21T16:46:57.778Z,22.26
2023-05-21T16:49:27.374Z,22.24
2023-05-21T16:51:56.955Z,22.23
2023-05-21T16:54:26.889Z,22.17
2023-05-21T16:56:57.095Z,22.11
2023-05-21T16:59:26.629Z,21.94
2023-05-21T17:01:58.869Z,21.85
2023-05-21T17:04:28.499Z,21.76
2023-05-21T17:06:58.056Z,21.70
2023-05-21T17:09:27.625Z,21.58
2023-05-21T17:11:57.185Z,21.52
2023-05-21T17:14:34.156Z,21.47
2023-05-21T17:17:07.173Z,21.46
2023-05-21T17:19:37.494Z,21.41
2023-05-21T17:22:07.473Z,21.37
2023-05-21T17:24:37.048Z,21.30
2023-05-21T17:27:06.761Z,21.25
2023-05-21T17:29:37.013Z,21.16
2023-05-21T17:32:09.581Z,21.12
2023-05-21T17:34:39.166Z,21.06
2023-05-21T17:37:08.754Z,20.98
2023-05-21T17:39:38.378Z,20.97
2023-05-21T17:42:08.425Z,20.91
2023-05-21T17:44:37.975Z,20.79
2023-05-21T17:47:10.776Z,20.80
2023-05-21T17:49:40.404Z,20.71
2023-05-21T17:52:10.276Z,20.64
2023-05-21T17:54:39.832Z,20.62
2023-05-21T17:57:09.416Z,20.57
2023-05-21T17:59:40.888Z,20.52
2023-05-21T18:02:13.835Z,20.51
2023-05-21T18:04:43.477Z,20.49
2023-05-21T18:07:13.055Z,20.44
2023-05-21T18:09:43.000Z,20.36
2023-05-21T18:12:12.609Z,20.33
2023-05-21T18:14:42.194Z,20.31
2023-05-21T18:17:14.364Z,20.26
2023-05-21T18:19:43.892Z,20.24
2023-05-21T18:22:13.796Z,20.17
2023-05-21T18:24:43.486Z,20.15
2023-05-21T18:27:13.683Z,20.09
2023-05-21T18:29:43.244Z,20.03
2023-05-21T18:32:16.806Z,19.92
2023-05-21T18:34:47.797Z,19.88
2023-05-21T18:37:17.752Z,19.86
2023-05-21T18:39:47.356Z,19.83
2023-05-21T18:42:17.448Z,19.78
2023-05-21T18:44:47.372Z,19.73
2023-05-21T18:47:19.500Z,19.68
2023-05-21T18:49:49.043Z,19.63
2023-05-21T18:52:18.584Z,19.56
2023-05-21T18:54:48.163Z,19.51
2023-05-21T18:57:17.667Z,19.46
2023-05-21T18:59:47.656Z,19.40
2023-05-21T19:02:19.939Z,19.36
2023-05-21T19:04:49.945Z,19.28
2023-05-21T19:07:19.537Z,19.29
2023-05-21T19:09:49.089Z,19.24
2023-05-21T19:12:18.922Z,19.20
2023-05-21T19:14:48.477Z,19.13
2023-05-21T19:17:20.816Z,19.08
2023-05-21T19:19:54.387Z,19.05
2023-05-21T19:22:24.035Z,18.98
2023-05-21T19:24:53.579Z,18.92
2023-05-21T19:27:23.937Z,18.88
2023-05-21T19:29:53.613Z,18.87
2023-05-21T19:32:26.351Z,18.81
2023-05-21T19:34:57.527Z,18.75
2023-05-21T19:37:27.073Z,18.73
2023-05-21T19:39:56.664Z,18.70
2023-05-21T19:42:27.060Z,18.67
2023-05-21T19:44:56.581Z,18.60
2023-05-21T19:47:28.766Z,18.57
2023-05-21T19:49:58.469Z,18.51
2023-05-21T19:52:27.979Z,18.46
2023-05-21T19:55:04.431Z,18.45
2023-05-21T19:57:34.278Z,18.40
2023-05-21T20:00:04.518Z,18.37
2023-05-21T20:02:36.688Z,18.37
2023-05-21T20:05:06.444Z,18.36
2023-05-21T20:07:36.048Z,18.33
2023-05-21T20:10:05.706Z,18.31
2023-05-21T20:12:35.817Z,18.25
2023-05-21T20:15:05.740Z,18.19
2023-05-21T20:17:39.856Z,18.20
2023-05-21T20:20:12.233Z,18.16
2023-05-21T20:22:41.809Z,18.14
2023-05-21T20:25:12.210Z,18.12
2023-05-21T20:27:42.408Z,18.11
2023-05-21T20:30:12.398Z,18.04
2023-05-21T20:32:44.658Z,18.02
2023-05-21T20:35:14.268Z,18.00
2023-05-21T20:37:43.898Z,17.98
2023-05-21T20:40:15.014Z,17.94
2023-05-21T20:42:45.259Z,17.90
2023-05-21T20:45:16.068Z,17.88
2023-05-21T20:47:50.165Z,17.84
2023-05-21T20:50:21.829Z,17.75
2023-05-21T20:52:52.136Z,17.73
2023-05-21T20:55:21.665Z,17.69
2023-05-21T20:57:51.439Z,17.63
2023-05-21T21:00:21.657Z,17.60
2023-05-21T21:02:54.816Z,17.57
2023-05-21T21:05:25.466Z,17.50
2023-05-21T21:07:56.030Z,17.51
2023-05-21T21:10:25.798Z,17.50
2023-05-21T21:12:55.331Z,17.43
2023-05-21T21:15:24.902Z,17.44
2023-05-21T21:17:57.151Z,17.41
2023-05-21T21:20:27.031Z,17.33
2023-05-21T21:22:56.608Z,17.26
2023-05-21T21:25:26.175Z,17.21
2023-05-21T21:27:55.796Z,17.17
2023-05-21T21:30:25.849Z,17.13
2023-05-21T21:32:58.170Z,17.08
2023-05-21T21:35:27.781Z,17.05
2023-05-21T21:37:57.383Z,16.98
2023-05-21T21:40:27.535Z,16.97
2023-05-21T21:42:57.100Z,16.92
2023-05-21T21:45:26.811Z,16.90
2023-05-21T21:47:59.070Z,16.86
2023-05-21T21:50:29.040Z,16.85
2023-05-21T21:52:59.989Z,16.83
2023-05-21T21:55:29.719Z,16.82
2023-05-21T21:57:59.303Z,16.80
2023-05-21T22:00:30.098Z,16.80
2023-05-21T22:03:02.295Z,16.77
2023-05-21T22:05:33.010Z,16.78
2023-05-21T22:08:02.561Z,16.76
2023-05-21T22:10:33.644Z,16.70
2023-05-21T22:13:03.222Z,16.70
2023-05-21T22:15:34.812Z,16.67
2023-05-21T22:18:09.694Z,16.65
2023-05-21T22:20:39.662Z,16.61
2023-05-21T22:23:09.286Z,16.54
2023-05-21T22:25:38.793Z,16.52
2023-05-21T22:28:08.536Z,16.51
2023-05-21T22:30:39.481Z,16.49
2023-05-21T22:33:11.928Z,16.44
2023-05-21T22:35:41.468Z,16.36
2023-05-21T22:38:11.042Z,16.32
2023-05-21T22:40:40.848Z,16.24
2023-05-21T22:43:10.668Z,16.22
2023-05-21T22:45:41.092Z,16.22
2023-05-21T22:48:14.415Z,16.17
2023-05-21T22:50:44.654Z,16.12
2023-05-21T22:53:14.233Z,16.08
2023-05-21T22:55:44.048Z,16.03
2023-05-21T22:58:13.614Z,16.00
2023-05-21T23:00:43.169Z,15.91
2023-05-21T23:03:15.415Z,15.88
2023-05-21T23:05:45.580Z,15.89
2023-05-21T23:08:15.691Z,15.88
2023-05-21T23:10:45.371Z,15.87
2023-05-21T23:13:15.037Z,15.82
2023-05-21T23:15:44.590Z,15.78
2023-05-21T23:18:16.849Z,15.76
2023-05-21T23:20:46.549Z,15.73
2023-05-21T23:23:16.139Z,15.71
2023-05-21T23:25:45.847Z,15.71
2023-05-21T23:28:15.394Z,15.68
2023-05-21T23:30:44.977Z,15.65
2023-05-21T23:33:17.624Z,15.65
2023-05-21T23:35:47.177Z,15.62
2023-05-21T23:38:16.860Z,15.59
2023-05-21T23:40:46.502Z,15.59
2023-05-21T23:43:16.101Z,15.56
2023-05-21T23:45:46.068Z,15.51
2023-05-21T23:48:18.244Z,15.52
2023-05-21T23:50:47.815Z,15.55
2023-05-21T23:53:17.335Z,15.52
2023-05-21T23:55:47.497Z,15.55
2023-05-21T23:58:17.028Z,15.51
